sensor_id;sensor_type;location;lat;lon;timestamp;pressure;altitude;pressure_sealevel;temperature;humidity
9139;BME280;4604;48.616;9.548;2023-07-30T00:01:30;96550.88;;;19.41;100.00
9139;BME280;4604;48.616;9.548;2023-07-30T00:03:58;96556.84;;;19.63;100.00
9139;BME280;4604;48.616;9.548;2023-07-30T00:06:26;96556.44;;;19.60;100.00
9139;BME280;4604;48.616;9.548;2023-07-30T00:08:54;96549.81;;;19.42;100.00
9139;BME280;4604;48.616;9.548;2023-07-30T00:11:21;96542.19;;;19.19;100.00
9139;BME280;4604;48.616;9.548;2023-07-30T00:13:47;96539.69;;;19.05;100.00
9139;BME280;4604;48.616;9.548;2023-07-30T00:16:14;96522.78;;;19.04;100.00
9139;BME280;4604;48.616;9.548;2023-07-30T00:18:41;96552.59;;;18.94;100.00
9139;BME280;4604;48.616;9.548;2023-07-30T00:21:07;96551.16;;;18.92;100.00
9139;BME280;4604;48.616;9.548;2023-07-30T00:23:34;96547.03;;;18.89;100.00
9139;BME280;4604;48.616;9.548;2023-07-30T00:26:02;96551.59;;;18.95;100.00
9139;BME280;4604;48.616;9.548;2023-07-30T00:28:29;96543.34;;;18.90;100.00
9139;BME280;4604;48.616;9.548;2023-07-30T00:30:55;96552.19;;;18.91;100.00
9139;BME280;4604;48.616;9.548;2023-07-30T00:33:22;96556.94;;;18.95;100.00
9139;BME280;4604;48.616;9.548;2023-07-30T00:35:50;96553.66;;;19.00;100.00
9139;BME280;4604;48.616;9.548;2023-07-30T00:38:17;96539.25;;;19.01;100.00
9139;BME280;4604;48.616;9.548;2023-07-30T00:40:44;96546.03;;;19.03;100.00
9139;BME280;4604;48.616;9.548;2023-07-30T00:43:12;96553.47;;;19.08;100.00
9139;BME280;4604;48.616;9.548;2023-07-30T00:45:41;96548.94;;;19.09;100.00
9139;BME280;4604;48.616;9.548;2023-07-30T00:48:09;96537.41;;;19.08;100.00
9139;BME280;4604;48.616;9.548;2023-07-30T00:50:36;96541.72;;;19.09;100.00
9139;BME280;4604;48.616;9.548;2023-07-30T00:53:04;96540.50;;;19.05;100.00
9139;BME280;4604;48.616;9.548;2023-07-30T00:55:32;96550.16;;;19.06;100.00
9139;BME280;4604;48.616;9.548;2023-07-30T00:57:59;96550.56;;;19.03;100.00
9139;BME280;4604;48.616;9.548;2023-07-30T01:00:27;96535.31;;;18.97;100.00
9139;BME280;4604;48.616;9.548;2023-07-30T01:02:55;96528.13;;;18.91;100.00
9139;BME280;4604;48.616;9.548;2023-07-30T01:05:21;96505.44;;;18.80;100.00
9139;BME280;4604;48.616;9.548;2023-07-30T01:07:48;96531.00;;;18.89;100.00
9139;BME280;4604;48.616;9.548;2023-07-30T01:10:15;96535.31;;;18.90;100.00
9139;BME280;4604;48.616;9.548;2023-07-30T01:12:43;96541.91;;;18.88;100.00
9139;BME280;4604;48.616;9.548;2023-07-30T01:15:10;96544.16;;;18.91;100.00
9139;BME280;4604;48.616;9.548;2023-07-30T01:17:40;96553.00;;;18.91;100.00
9139;BME280;4604;48.616;9.548;2023-07-30T01:20:07;96548.03;;;18.81;100.00
9139;BME280;4604;48.616;9.548;2023-07-30T01:22:36;96541.25;;;18.79;100.00
9139;BME280;4604;48.616;9.548;2023-07-30T01:25:03;96548.19;;;18.73;100.00
9139;BME280;4604;48.616;9.548;2023-07-30T01:27:32;96546.31;;;18.67;100.00
9139;BME280;4604;48.616;9.548;2023-07-30T01:30:03;96541.81;;;18.74;100.00
9139;BME280;4604;48.616;9.548;2023-07-30T01:32:32;96555.16;;;18.68;100.00
9139;BME280;4604;48.616;9.548;2023-07-30T01:35:01;96552.47;;;18.68;100.00
9139;BME280;4604;48.616;9.548;2023-07-30T01:37:29;96552.50;;;18.74;100.00
9139;BME280;4604;48.616;9.548;2023-07-30T01:39:58;96543.63;;;18.67;100.00
9139;BME280;4604;48.616;9.548;2023-07-30T01:42:28;96568.31;;;18.69;100.00
9139;BME280;4604;48.616;9.548;2023-07-30T01:44:55;96571.41;;;18.66;100.00
9139;BME280;4604;48.616;9.548;2023-07-30T01:47:22;96567.91;;;18.66;100.00
9139;BME280;4604;48.616;9.548;2023-07-30T01:49:48;96561.59;;;18.80;100.00
9139;BME280;4604;48.616;9.548;2023-07-30T01:52:15;96573.56;;;18.84;100.00
9139;BME280;4604;48.616;9.548;2023-07-30T01:54:42;96557.41;;;18.64;100.00
9139;BME280;4604;48.616;9.548;2023-07-30T01:57:10;96577.03;;;18.78;100.00
9139;BME280;4604;48.616;9.548;2023-07-30T01:59:38;96564.53;;;18.85;100.00
9139;BME280;4604;48.616;9.548;2023-07-30T02:02:04;96577.91;;;18.92;100.00
9139;BME280;4604;48.616;9.548;2023-07-30T02:04:32;96580.78;;;18.97;100.00
9139;BME280;4604;48.616;9.548;2023-07-30T02:06:59;96574.00;;;18.88;100.00
9139;BME280;4604;48.616;9.548;2023-07-30T02:09:25;96574.66;;;19.03;100.00
9139;BME280;4604;48.616;9.548;2023-07-30T02:11:52;96577.91;;;18.92;100.00
9139;BME280;4604;48.616;9.548;2023-07-30T02:14:20;96566.38;;;18.91;100.00
9139;BME280;4604;48.616;9.548;2023-07-30T02:16:47;96577.91;;;18.92;100.00
9139;BME280;4604;48.616;9.548;2023-07-30T02:19:13;96575.22;;;18.92;100.00
9139;BME280;4604;48.616;9.548;2023-07-30T02:21:40;96573.59;;;18.91;100.00
9139;BME280;4604;48.616;9.548;2023-07-30T02:24:08;96537.06;;;18.70;100.00
9139;BME280;4604;48.616;9.548;2023-07-30T02:26:36;96562.03;;;18.84;100.00
9139;BME280;4604;48.616;9.548;2023-07-30T02:29:03;96565.75;;;18.89;100.00
9139;BME280;4604;48.616;9.548;2023-07-30T02:31:31;96560.25;;;19.04;100.00
9139;BME280;4604;48.616;9.548;2023-07-30T02:33:58;96563.28;;;18.94;100.00
9139;BME280;4604;48.616;9.548;2023-07-30T02:36:25;96562.50;;;19.00;100.00
9139;BME280;4604;48.616;9.548;2023-07-30T02:38:51;96563.53;;;19.06;100.00
9139;BME280;4604;48.616;9.548;2023-07-30T02:41:18;96558.97;;;18.93;100.00
9139;BME280;4604;48.616;9.548;2023-07-30T02:43:44;96555.69;;;18.91;100.00
9139;BME280;4604;48.616;9.548;2023-07-30T02:46:11;96563.94;;;18.96;100.00
9139;BME280;4604;48.616;9.548;2023-07-30T02:48:39;96567.78;;;18.87;100.00
9139;BME280;4604;48.616;9.548;2023-07-30T02:51:06;96573.78;;;18.89;100.00
9139;BME280;4604;48.616;9.548;2023-07-30T02:53:32;96583.72;;;19.02;100.00
9139;BME280;4604;48.616;9.548;2023-07-30T02:55:59;96574.63;;;18.96;100.00
9139;BME280;4604;48.616;9.548;2023-07-30T02:58:26;96579.97;;;18.96;100.00
9139;BME280;4604;48.616;9.548;2023-07-30T03:00:52;96589.44;;;18.99;100.00
9139;BME280;4604;48.616;9.548;2023-07-30T03:03:19;96584.31;;;18.97;100.00
9139;BME280;4604;48.616;9.548;2023-07-30T03:05:47;96573.19;;;19.00;100.00
9139;BME280;4604;48.616;9.548;2023-07-30T03:08:14;96579.56;;;18.99;100.00
9139;BME280;4604;48.616;9.548;2023-07-30T03:10:40;96578.75;;;18.92;100.00
9139;BME280;4604;48.616;9.548;2023-07-30T03:13:07;96573.19;;;18.94;100.00
9139;BME280;4604;48.616;9.548;2023-07-30T03:15:33;96566.59;;;18.96;100.00
9139;BME280;4604;48.616;9.548;2023-07-30T03:18:00;96568.66;;;19.01;100.00
9139;BME280;4604;48.616;9.548;2023-07-30T03:20:27;96577.53;;;19.08;100.00
9139;BME280;4604;48.616;9.548;2023-07-30T03:22:55;96576.28;;;18.97;100.00
9139;BME280;4604;48.616;9.548;2023-07-30T03:25:21;96575.47;;;19.03;100.00
9139;BME280;4604;48.616;9.548;2023-07-30T03:27:48;96589.66;;;19.04;100.00
9139;BME280;4604;48.616;9.548;2023-07-30T03:30:15;96575.88;;;19.00;100.00
9139;BME280;4604;48.616;9.548;2023-07-30T03:32:41;96585.16;;;19.05;100.00
9139;BME280;4604;48.616;9.548;2023-07-30T03:35:08;96592.56;;;19.02;100.00
9139;BME280;4604;48.616;9.548;2023-07-30T03:37:35;96576.47;;;18.96;100.00
9139;BME280;4604;48.616;9.548;2023-07-30T03:40:04;96585.53;;;19.01;100.00
9139;BME280;4604;48.616;9.548;2023-07-30T03:42:30;96580.41;;;19.00;100.00
9139;BME280;4604;48.616;9.548;2023-07-30T03:44:57;96584.94;;;19.06;100.00
9139;BME280;4604;48.616;9.548;2023-07-30T03:47:24;96572.19;;;19.08;100.00
9139;BME280;4604;48.616;9.548;2023-07-30T03:49:50;96591.34;;;19.05;100.00
9139;BME280;4604;48.616;9.548;2023-07-30T03:52:17;96581.41;;;18.99;100.00
9139;BME280;4604;48.616;9.548;2023-07-30T03:54:44;96587.78;;;18.91;100.00
9139;BME280;4604;48.616;9.548;2023-07-30T03:57:12;96588.56;;;18.78;100.00
9139;BME280;4604;48.616;9.548;2023-07-30T03:59:38;96582.97;;;18.80;100.00
9139;BME280;4604;48.616;9.548;2023-07-30T04:02:05;96599.06;;;18.87;100.00
9139;BME280;4604;48.616;9.548;2023-07-30T04:04:32;96592.28;;;18.84;100.00
9139;BME280;4604;48.616;9.548;2023-07-30T04:06:58;96600.88;;;18.79;100.00
9139;BME280;4604;48.616;9.548;2023-07-30T04:09:25;96608.72;;;18.81;100.00
9139;BME280;4604;48.616;9.548;2023-07-30T04:11:52;96613.88;;;18.89;100.00
9139;BME280;4604;48.616;9.548;2023-07-30T04:14:20;96623.34;;;18.92;100.00
9139;BME280;4604;48.616;9.548;2023-07-30T04:16:46;96624.22;;;18.92;100.00
9139;BME280;4604;48.616;9.548;2023-07-30T04:19:14;96606.47;;;18.85;100.00
9139;BME280;4604;48.616;9.548;2023-07-30T04:21:41;96612.66;;;18.92;100.00
9139;BME280;4604;48.616;9.548;2023-07-30T04:24:08;96628.34;;;18.95;100.00
9139;BME280;4604;48.616;9.548;2023-07-30T04:26:34;96626.47;;;18.95;100.00
9139;BME280;4604;48.616;9.548;2023-07-30T04:29:01;96634.09;;;18.98;100.00
9139;BME280;4604;48.616;9.548;2023-07-30T04:31:29;96634.09;;;18.98;100.00
9139;BME280;4604;48.616;9.548;2023-07-30T04:33:57;96645.41;;;19.00;100.00
9139;BME280;4604;48.616;9.548;2023-07-30T04:36:24;96630.16;;;18.88;100.00
9139;BME280;4604;48.616;9.548;2023-07-30T04:38:51;96650.53;;;18.95;100.00
9139;BME280;4604;48.616;9.548;2023-07-30T04:41:18;96639.03;;;18.95;100.00
9139;BME280;4604;48.616;9.548;2023-07-30T04:43:45;96641.88;;;18.93;100.00
9139;BME280;4604;48.616;9.548;2023-07-30T04:46:12;96646.91;;;19.10;100.00
9139;BME280;4604;48.616;9.548;2023-07-30T04:48:40;96640.72;;;19.09;100.00
9139;BME280;4604;48.616;9.548;2023-07-30T04:51:07;96639.09;;;19.15;100.00
9139;BME280;4604;48.616;9.548;2023-07-30T04:53:34;96653.47;;;19.14;100.00
9139;BME280;4604;48.616;9.548;2023-07-30T04:56:00;96630.00;;;19.09;100.00
9139;BME280;4604;48.616;9.548;2023-07-30T04:58:27;96637.84;;;19.11;100.00
9139;BME280;4604;48.616;9.548;2023-07-30T05:00:54;96650.19;;;19.12;100.00
9139;BME280;4604;48.616;9.548;2023-07-30T05:03:21;96645.09;;;19.17;100.00
9139;BME280;4604;48.616;9.548;2023-07-30T05:05:49;96643.41;;;19.16;100.00
9139;BME280;4604;48.616;9.548;2023-07-30T05:08:17;96634.75;;;19.07;100.00
9139;BME280;4604;48.616;9.548;2023-07-30T05:10:44;96640.97;;;19.14;100.00
9139;BME280;4604;48.616;9.548;2023-07-30T05:13:11;96636.44;;;19.15;100.00
9139;BME280;4604;48.616;9.548;2023-07-30T05:15:38;96632.22;;;18.99;100.00
9139;BME280;4604;48.616;9.548;2023-07-30T05:18:05;96628.78;;;19.05;100.00
9139;BME280;4604;48.616;9.548;2023-07-30T05:20:31;96635.81;;;19.13;100.00
9139;BME280;4604;48.616;9.548;2023-07-30T05:22:59;96641.19;;;19.19;100.00
9139;BME280;4604;48.616;9.548;2023-07-30T05:25:27;96649.38;;;19.11;100.00
9139;BME280;4604;48.616;9.548;2023-07-30T05:27:54;96645.31;;;19.22;100.00
9139;BME280;4604;48.616;9.548;2023-07-30T05:30:20;96648.41;;;19.32;100.00
9139;BME280;4604;48.616;9.548;2023-07-30T05:32:47;96659.75;;;19.34;100.00
9139;BME280;4604;48.616;9.548;2023-07-30T05:35:14;96643.66;;;19.28;100.00
9139;BME280;4604;48.616;9.548;2023-07-30T05:37:41;96649.03;;;19.28;100.00
9139;BME280;4604;48.616;9.548;2023-07-30T05:40:09;96643.84;;;19.19;100.00
9139;BME280;4604;48.616;9.548;2023-07-30T05:42:36;96650.22;;;19.18;100.00
9139;BME280;4604;48.616;9.548;2023-07-30T05:45:03;96648.59;;;19.24;100.00
9139;BME280;4604;48.616;9.548;2023-07-30T05:47:30;96654.56;;;19.26;100.00
9139;BME280;4604;48.616;9.548;2023-07-30T05:49:56;96647.56;;;19.25;100.00
9139;BME280;4604;48.616;9.548;2023-07-30T05:52:23;96648.38;;;19.25;100.00
9139;BME280;4604;48.616;9.548;2023-07-30T05:54:50;96669.53;;;19.14;100.00
9139;BME280;4604;48.616;9.548;2023-07-30T05:57:18;96659.66;;;19.08;100.00
9139;BME280;4604;48.616;9.548;2023-07-30T05:59:44;96655.13;;;19.08;100.00
9139;BME280;4604;48.616;9.548;2023-07-30T06:02:12;96654.31;;;19.08;100.00
9139;BME280;4604;48.616;9.548;2023-07-30T06:04:38;96655.31;;;19.07;100.00
9139;BME280;4604;48.616;9.548;2023-07-30T06:07:05;96662.75;;;19.11;100.00
9139;BME280;4604;48.616;9.548;2023-07-30T06:09:32;96653.44;;;19.00;100.00
9139;BME280;4604;48.616;9.548;2023-07-30T06:11:59;96657.16;;;19.06;100.00
9139;BME280;4604;48.616;9.548;2023-07-30T06:14:27;96661.28;;;19.09;100.00
9139;BME280;4604;48.616;9.548;2023-07-30T06:16:54;96659.56;;;18.94;100.00
9139;BME280;4604;48.616;9.548;2023-07-30T06:19:20;96670.72;;;18.98;100.00
9139;BME280;4604;48.616;9.548;2023-07-30T06:21:47;96680.47;;;19.12;100.00
9139;BME280;4604;48.616;9.548;2023-07-30T06:24:14;96687.25;;;19.21;100.00
9139;BME280;4604;48.616;9.548;2023-07-30T06:26:40;96675.09;;;19.12;100.00
9139;BME280;4604;48.616;9.548;2023-07-30T06:29:07;96668.31;;;19.16;100.00
9139;BME280;4604;48.616;9.548;2023-07-30T06:31:35;96682.38;;;19.38;100.00
9139;BME280;4604;48.616;9.548;2023-07-30T06:34:02;96681.16;;;19.41;100.00
9139;BME280;4604;48.616;9.548;2023-07-30T06:36:28;96676.81;;;19.33;100.00
9139;BME280;4604;48.616;9.548;2023-07-30T06:38:55;96680.56;;;19.45;100.00
9139;BME280;4604;48.616;9.548;2023-07-30T06:41:22;96689.03;;;19.49;100.00
9139;BME280;4604;48.616;9.548;2023-07-30T06:43:48;96698.34;;;19.66;100.00
9139;BME280;4604;48.616;9.548;2023-07-30T06:46:15;96690.50;;;19.58;100.00
9139;BME280;4604;48.616;9.548;2023-07-30T06:48:43;96709.72;;;19.82;100.00
9139;BME280;4604;48.616;9.548;2023-07-30T06:51:10;96708.31;;;19.86;100.00
9139;BME280;4604;48.616;9.548;2023-07-30T06:53:38;96702.97;;;19.93;100.00
9139;BME280;4604;48.616;9.548;2023-07-30T06:56:04;96700.03;;;19.74;100.00
9139;BME280;4604;48.616;9.548;2023-07-30T06:58:31;96696.94;;;19.77;100.00
9139;BME280;4604;48.616;9.548;2023-07-30T07:00:58;96686.84;;;19.79;100.00
9139;BME280;4604;48.616;9.548;2023-07-30T07:03:24;96684.59;;;19.89;100.00
9139;BME280;4604;48.616;9.548;2023-07-30T07:05:55;96691.66;;;19.97;96.65
9139;BME280;4604;48.616;9.548;2023-07-30T07:08:22;96697.81;;;19.98;99.50
9139;BME280;4604;48.616;9.548;2023-07-30T07:10:49;96710.78;;;20.14;99.70
9139;BME280;4604;48.616;9.548;2023-07-30T07:13:15;96710.59;;;19.96;93.78
9139;BME280;4604;48.616;9.548;2023-07-30T07:15:44;96711.00;;;19.99;96.57
9139;BME280;4604;48.616;9.548;2023-07-30T07:18:11;96708.72;;;19.96;97.06
9139;BME280;4604;48.616;9.548;2023-07-30T07:20:38;96702.56;;;20.09;97.10
9139;BME280;4604;48.616;9.548;2023-07-30T07:23:06;96714.75;;;20.25;95.65
9139;BME280;4604;48.616;9.548;2023-07-30T07:25:32;96711.25;;;20.44;94.08
9139;BME280;4604;48.616;9.548;2023-07-30T07:27:59;96716.19;;;20.27;95.13
9139;BME280;4604;48.616;9.548;2023-07-30T07:30:26;96721.13;;;20.37;96.06
9139;BME280;4604;48.616;9.548;2023-07-30T07:32:53;96713.31;;;20.56;95.50
9139;BME280;4604;48.616;9.548;2023-07-30T07:35:20;96715.13;;;20.75;93.59
9139;BME280;4604;48.616;9.548;2023-07-30T07:37:48;96720.13;;;20.78;93.70
9139;BME280;4604;48.616;9.548;2023-07-30T07:40:16;96720.69;;;20.93;92.99
9139;BME280;4604;48.616;9.548;2023-07-30T07:42:43;96724.00;;;20.82;89.89
9139;BME280;4604;48.616;9.548;2023-07-30T07:45:10;96723.22;;;20.68;89.94
9139;BME280;4604;48.616;9.548;2023-07-30T07:47:36;96728.56;;;20.55;89.27
9139;BME280;4604;48.616;9.548;2023-07-30T07:50:04;96738.25;;;20.63;91.65
9139;BME280;4604;48.616;9.548;2023-07-30T07:52:30;96746.88;;;20.05;94.00
9139;BME280;4604;48.616;9.548;2023-07-30T07:54:57;96755.09;;;19.90;99.45
9139;BME280;4604;48.616;9.548;2023-07-30T07:57:25;96752.19;;;19.85;100.00
9139;BME280;4604;48.616;9.548;2023-07-30T07:59:52;96750.84;;;19.61;100.00
9139;BME280;4604;48.616;9.548;2023-07-30T08:02:18;96768.66;;;19.34;100.00
9139;BME280;4604;48.616;9.548;2023-07-30T08:04:45;96746.41;;;18.70;100.00
9139;BME280;4604;48.616;9.548;2023-07-30T08:07:12;96771.59;;;18.54;100.00
9139;BME280;4604;48.616;9.548;2023-07-30T08:09:38;96773.47;;;18.32;100.00
9139;BME280;4604;48.616;9.548;2023-07-30T08:12:05;96785.75;;;18.27;100.00
9139;BME280;4604;48.616;9.548;2023-07-30T08:14:34;96783.75;;;18.35;100.00
9139;BME280;4604;48.616;9.548;2023-07-30T08:17:00;96782.78;;;18.43;100.00
9139;BME280;4604;48.616;9.548;2023-07-30T08:19:27;96773.28;;;18.34;100.00
9139;BME280;4604;48.616;9.548;2023-07-30T08:21:54;96784.78;;;18.56;100.00
9139;BME280;4604;48.616;9.548;2023-07-30T08:24:22;96791.81;;;18.85;100.00
9139;BME280;4604;48.616;9.548;2023-07-30T08:26:48;96798.41;;;18.89;100.00
9139;BME280;4604;48.616;9.548;2023-07-30T08:29:15;96785.19;;;18.81;100.00
9139;BME280;4604;48.616;9.548;2023-07-30T08:31:43;96782.41;;;18.96;100.00
9139;BME280;4604;48.616;9.548;2023-07-30T08:34:10;96776.66;;;18.99;100.00
9139;BME280;4604;48.616;9.548;2023-07-30T08:36:37;96784.38;;;19.15;100.00
9139;BME280;4604;48.616;9.548;2023-07-30T08:39:04;96783.84;;;19.27;100.00
9139;BME280;4604;48.616;9.548;2023-07-30T08:41:31;96780.25;;;19.54;100.00
9139;BME280;4604;48.616;9.548;2023-07-30T08:43:57;96789.94;;;19.55;100.00
9139;BME280;4604;48.616;9.548;2023-07-30T08:46:24;96783.91;;;19.81;100.00
9139;BME280;4604;48.616;9.548;2023-07-30T08:48:52;96788.06;;;19.91;98.44
9139;BME280;4604;48.616;9.548;2023-07-30T08:51:21;96780.81;;;19.84;95.53
9139;BME280;4604;48.616;9.548;2023-07-30T08:53:50;96787.22;;;19.97;94.66
9139;BME280;4604;48.616;9.548;2023-07-30T08:56:17;96775.34;;;20.19;97.64
9139;BME280;4604;48.616;9.548;2023-07-30T08:58:44;96776.19;;;20.40;96.72
9139;BME280;4604;48.616;9.548;2023-07-30T09:01:13;96786.34;;;20.71;96.59
9139;BME280;4604;48.616;9.548;2023-07-30T09:03:41;96773.09;;;20.89;93.93
9139;BME280;4604;48.616;9.548;2023-07-30T09:06:09;96770.41;;;21.03;89.95
9139;BME280;4604;48.616;9.548;2023-07-30T09:08:36;96759.38;;;21.37;92.73
9139;BME280;4604;48.616;9.548;2023-07-30T09:11:08;96761.84;;;21.52;88.78
9139;BME280;4604;48.616;9.548;2023-07-30T09:13:37;96766.44;;;21.19;85.67
9139;BME280;4604;48.616;9.548;2023-07-30T09:16:09;96760.84;;;21.47;83.21
9139;BME280;4604;48.616;9.548;2023-07-30T09:18:40;96758.53;;;21.57;78.73
9139;BME280;4604;48.616;9.548;2023-07-30T09:21:07;96771.03;;;21.76;79.16
9139;BME280;4604;48.616;9.548;2023-07-30T09:23:39;96759.78;;;21.48;76.09
9139;BME280;4604;48.616;9.548;2023-07-30T09:26:06;96768.25;;;21.38;83.38
9139;BME280;4604;48.616;9.548;2023-07-30T09:28:33;96765.28;;;21.73;83.60
9139;BME280;4604;48.616;9.548;2023-07-30T09:31:00;96770.75;;;21.91;80.65
9139;BME280;4604;48.616;9.548;2023-07-30T09:33:28;96760.47;;;21.82;83.77
9139;BME280;4604;48.616;9.548;2023-07-30T09:35:55;96762.25;;;21.94;79.95
9139;BME280;4604;48.616;9.548;2023-07-30T09:38:21;96774.81;;;21.62;78.88
9139;BME280;4604;48.616;9.548;2023-07-30T09:40:49;96761.22;;;21.50;78.06
9139;BME280;4604;48.616;9.548;2023-07-30T09:43:16;96777.19;;;21.19;78.87
9139;BME280;4604;48.616;9.548;2023-07-30T09:45:45;96759.63;;;21.23;79.03
9139;BME280;4604;48.616;9.548;2023-07-30T09:48:13;96776.97;;;21.27;81.17
9139;BME280;4604;48.616;9.548;2023-07-30T09:50:43;96766.06;;;21.02;82.40
9139;BME280;4604;48.616;9.548;2023-07-30T09:53:10;96776.59;;;21.03;82.75
9139;BME280;4604;48.616;9.548;2023-07-30T09:55:37;96780.34;;;20.69;84.04
9139;BME280;4604;48.616;9.548;2023-07-30T09:58:05;96762.59;;;20.55;85.44
9139;BME280;4604;48.616;9.548;2023-07-30T10:00:36;96787.72;;;20.40;89.20
9139;BME280;4604;48.616;9.548;2023-07-30T10:03:04;96776.97;;;20.14;90.01
9139;BME280;4604;48.616;9.548;2023-07-30T10:05:33;96758.00;;;20.08;93.97
9139;BME280;4604;48.616;9.548;2023-07-30T10:08:02;96771.59;;;20.00;97.22
9139;BME280;4604;48.616;9.548;2023-07-30T10:10:31;96771.97;;;19.84;100.00
9139;BME280;4604;48.616;9.548;2023-07-30T10:13:01;96775.75;;;20.09;100.00
9139;BME280;4604;48.616;9.548;2023-07-30T10:15:33;96791.38;;;19.99;100.00
9139;BME280;4604;48.616;9.548;2023-07-30T10:18:01;96802.47;;;19.83;100.00
9139;BME280;4604;48.616;9.548;2023-07-30T10:20:28;96820.22;;;19.56;100.00
9139;BME280;4604;48.616;9.548;2023-07-30T10:22:56;96807.31;;;19.31;100.00
9139;BME280;4604;48.616;9.548;2023-07-30T10:25:28;96822.94;;;19.28;100.00
9139;BME280;4604;48.616;9.548;2023-07-30T10:27:55;96830.75;;;19.22;100.00
9139;BME280;4604;48.616;9.548;2023-07-30T10:30:31;96811.25;;;19.00;100.00
9139;BME280;4604;48.616;9.548;2023-07-30T10:33:00;96808.03;;;19.12;100.00
9139;BME280;4604;48.616;9.548;2023-07-30T10:35:38;96831.22;;;19.33;100.00
9139;BME280;4604;48.616;9.548;2023-07-30T10:38:15;96833.25;;;19.31;100.00
9139;BME280;4604;48.616;9.548;2023-07-30T10:40:42;96846.97;;;19.49;100.00
9139;BME280;4604;48.616;9.548;2023-07-30T10:43:15;96841.56;;;19.77;100.00
9139;BME280;4604;48.616;9.548;2023-07-30T10:45:52;96830.88;;;19.84;92.95
9139;BME280;4604;48.616;9.548;2023-07-30T10:48:29;96822.47;;;19.94;94.65
9139;BME280;4604;48.616;9.548;2023-07-30T10:50:56;96821.09;;;20.18;93.35
9139;BME280;4604;48.616;9.548;2023-07-30T10:53:22;96829.00;;;20.52;90.37
9139;BME280;4604;48.616;9.548;2023-07-30T10:55:49;96819.47;;;20.17;87.84
9139;BME280;4604;48.616;9.548;2023-07-30T10:58:18;96832.47;;;20.33;89.22
9139;BME280;4604;48.616;9.548;2023-07-30T11:00:50;96829.63;;;20.55;84.90
9139;BME280;4604;48.616;9.548;2023-07-30T11:03:18;96824.84;;;20.43;87.95
9139;BME280;4604;48.616;9.548;2023-07-30T11:05:46;96829.53;;;20.08;86.51
9139;BME280;4604;48.616;9.548;2023-07-30T11:08:13;96821.13;;;20.38;89.34
9139;BME280;4604;48.616;9.548;2023-07-30T11:10:43;96833.38;;;20.67;90.00
9139;BME280;4604;48.616;9.548;2023-07-30T11:13:12;96850.50;;;20.86;87.95
9139;BME280;4604;48.616;9.548;2023-07-30T11:15:42;96835.03;;;20.68;85.22
9139;BME280;4604;48.616;9.548;2023-07-30T11:18:09;96830.69;;;20.67;87.24
9139;BME280;4604;48.616;9.548;2023-07-30T11:20:37;96835.44;;;20.91;85.63
9139;BME280;4604;48.616;9.548;2023-07-30T11:23:19;96833.41;;;20.80;83.26
9139;BME280;4604;48.616;9.548;2023-07-30T11:25:47;96831.06;;;21.24;83.92
9139;BME280;4604;48.616;9.548;2023-07-30T11:28:14;96818.88;;;21.21;80.06
9139;BME280;4604;48.616;9.548;2023-07-30T11:30:42;96822.22;;;21.10;80.84
9139;BME280;4604;48.616;9.548;2023-07-30T11:33:15;96823.28;;;20.95;82.00
9139;BME280;4604;48.616;9.548;2023-07-30T11:35:43;96818.72;;;21.03;75.42
9139;BME280;4604;48.616;9.548;2023-07-30T11:38:11;96820.56;;;21.29;75.98
9139;BME280;4604;48.616;9.548;2023-07-30T11:40:38;96832.09;;;21.43;78.49
9139;BME280;4604;48.616;9.548;2023-07-30T11:43:05;96824.22;;;21.61;74.89
9139;BME280;4604;48.616;9.548;2023-07-30T11:45:32;96825.59;;;21.77;75.68
9139;BME280;4604;48.616;9.548;2023-07-30T11:48:05;96797.28;;;21.81;76.80
9139;BME280;4604;48.616;9.548;2023-07-30T11:50:46;96830.84;;;22.49;69.50
9139;BME280;4604;48.616;9.548;2023-07-30T11:53:13;96816.34;;;22.50;67.99
9139;BME280;4604;48.616;9.548;2023-07-30T11:55:41;96806.72;;;22.35;68.83
9139;BME280;4604;48.616;9.548;2023-07-30T11:58:08;96809.19;;;22.37;67.33
9139;BME280;4604;48.616;9.548;2023-07-30T12:00:36;96811.47;;;22.33;65.65
9139;BME280;4604;48.616;9.548;2023-07-30T12:03:04;96815.00;;;22.65;64.08
9139;BME280;4604;48.616;9.548;2023-07-30T12:05:32;96816.75;;;22.53;64.15
9139;BME280;4604;48.616;9.548;2023-07-30T12:08:00;96807.41;;;22.81;64.13
9139;BME280;4604;48.616;9.548;2023-07-30T12:10:41;96804.66;;;22.62;61.98
9139;BME280;4604;48.616;9.548;2023-07-30T12:13:14;96819.22;;;22.80;62.24
9139;BME280;4604;48.616;9.548;2023-07-30T12:15:43;96820.19;;;23.17;61.33
9139;BME280;4604;48.616;9.548;2023-07-30T12:18:10;96814.03;;;23.28;58.87
9139;BME280;4604;48.616;9.548;2023-07-30T12:20:37;96821.31;;;23.65;58.88
9139;BME280;4604;48.616;9.548;2023-07-30T12:23:05;96817.13;;;23.50;55.96
9139;BME280;4604;48.616;9.548;2023-07-30T12:25:34;96811.81;;;23.62;56.09
9139;BME280;4604;48.616;9.548;2023-07-30T12:28:01;96814.22;;;23.70;52.80
9139;BME280;4604;48.616;9.548;2023-07-30T12:30:28;96812.97;;;23.36;53.89
9139;BME280;4604;48.616;9.548;2023-07-30T12:32:55;96812.91;;;23.18;51.25
9139;BME280;4604;48.616;9.548;2023-07-30T12:35:22;96826.13;;;23.44;51.04
9139;BME280;4604;48.616;9.548;2023-07-30T12:37:48;96823.78;;;23.48;52.46
9139;BME280;4604;48.616;9.548;2023-07-30T12:40:17;96837.75;;;23.63;51.29
9139;BME280;4604;48.616;9.548;2023-07-30T12:42:44;96851.78;;;23.47;49.85
9139;BME280;4604;48.616;9.548;2023-07-30T12:45:10;96827.19;;;23.00;51.11
9139;BME280;4604;48.616;9.548;2023-07-30T12:47:37;96819.13;;;22.93;52.02
9139;BME280;4604;48.616;9.548;2023-07-30T12:50:04;96821.53;;;22.76;59.67
9139;BME280;4604;48.616;9.548;2023-07-30T12:52:32;96821.34;;;23.03;58.30
9139;BME280;4604;48.616;9.548;2023-07-30T12:54:59;96819.31;;;22.98;54.15
9139;BME280;4604;48.616;9.548;2023-07-30T12:57:28;96809.50;;;22.54;64.31
9139;BME280;4604;48.616;9.548;2023-07-30T12:59:54;96790.09;;;22.70;65.18
9139;BME280;4604;48.616;9.548;2023-07-30T13:02:21;96828.41;;;22.97;64.91
9139;BME280;4604;48.616;9.548;2023-07-30T13:04:48;96824.03;;;23.03;64.44
9139;BME280;4604;48.616;9.548;2023-07-30T13:07:14;96838.72;;;22.75;63.06
9139;BME280;4604;48.616;9.548;2023-07-30T13:09:41;96837.50;;;22.46;65.37
9139;BME280;4604;48.616;9.548;2023-07-30T13:12:08;96839.91;;;22.54;66.27
9139;BME280;4604;48.616;9.548;2023-07-30T13:14:36;96845.91;;;22.56;64.64
9139;BME280;4604;48.616;9.548;2023-07-30T13:17:03;96828.25;;;22.29;65.31